createdAt,value
2018-06-10T00:01:01.699Z,95.60
2018-06-10T00:03:29.946Z,96.20
2018-06-10T00:05:58.184Z,96.70
2018-06-10T00:08:26.399Z,96.60
2018-06-10T00:10:54.663Z,96.80
2018-06-10T00:13:22.871Z,96.20
2018-06-10T00:15:51.125Z,96.80
2018-06-10T00:18:19.370Z,96.40
2018-06-10T00:20:47.553Z,95.80
2018-06-10T00:23:15.773Z,96.00
2018-06-10T00:25:43.965Z,96.30
2018-06-10T00:28:12.322Z,96.30
2018-06-10T00:30:40.565Z,96.80
2018-06-10T00:33:08.769Z,96.20
2018-06-10T00:35:36.998Z,96.60
2018-06-10T00:38:05.258Z,96.30
2018-06-10T00:43:01.509Z,95.70
2018-06-10T00:45:29.810Z,95.50
2018-06-10T00:47:58.048Z,95.30
2018-06-10T00:50:26.303Z,95.00
2018-06-10T00:52:54.535Z,94.50
2018-06-10T00:55:22.775Z,94.70
2018-06-10T00:57:51.001Z,94.30
2018-06-10T01:00:19.265Z,94.60
2018-06-10T01:02:47.486Z,94.80
2018-06-10T01:05:15.727Z,95.30
2018-06-10T01:07:43.954Z,95.70
2018-06-10T01:10:12.172Z,96.20
2018-06-10T01:12:40.398Z,96.10
2018-06-10T01:15:08.602Z,96.50
2018-06-10T01:17:36.817Z,96.30
2018-06-10T01:20:05.054Z,96.30
2018-06-10T01:22:33.264Z,96.00
2018-06-10T01:25:01.493Z,96.50
2018-06-10T01:27:29.682Z,96.60
2018-06-10T01:29:57.942Z,96.50
2018-06-10T01:32:26.157Z,96.50
2018-06-10T01:34:54.345Z,96.70
2018-06-10T01:37:22.557Z,97.30
2018-06-10T01:39:50.760Z,97.30
2018-06-10T01:42:19.005Z,97.60
2018-06-10T01:44:47.226Z,97.40
2018-06-10T01:47:15.479Z,97.30
2018-06-10T01:49:43.800Z,97.60
2018-06-10T01:52:12.042Z,96.90
2018-06-10T01:54:40.277Z,97.20
2018-06-10T01:57:08.529Z,97.60
2018-06-10T01:59:36.722Z,97.40
2018-06-10T02:02:04.973Z,97.20
2018-06-10T02:04:33.221Z,96.90
2018-06-10T02:07:01.473Z,96.60
2018-06-10T02:09:29.733Z,96.80
2018-06-10T02:11:57.939Z,96.60
2018-06-10T02:14:26.175Z,96.50
2018-06-10T02:16:54.416Z,96.40
2018-06-10T02:19:22.641Z,96.40
2018-06-10T02:21:50.853Z,96.30
2018-06-10T02:24:19.041Z,96.50
2018-06-10T02:26:47.273Z,96.30
2018-06-10T02:29:15.458Z,96.10
2018-06-10T02:31:43.721Z,95.90
2018-06-10T02:34:11.974Z,96.20
2018-06-10T02:36:40.166Z,96.10
2018-06-10T02:39:08.408Z,96.10
2018-06-10T02:41:36.610Z,96.40
2018-06-10T02:44:11.394Z,96.00
2018-06-10T02:46:39.625Z,96.10
2018-06-10T02:49:07.818Z,95.60
2018-06-10T02:51:36.118Z,96.00
2018-06-10T02:54:04.442Z,95.50
2018-06-10T02:56:32.690Z,95.50
2018-06-10T02:59:00.945Z,95.80
2018-06-10T03:03:36.733Z,95.20
2018-06-10T03:06:05.258Z,94.30
2018-06-10T03:08:33.498Z,94.90
2018-06-10T03:11:01.742Z,95.10
2018-06-10T03:13:29.956Z,95.20
2018-06-10T03:15:58.235Z,95.30
2018-06-10T03:18:26.458Z,95.00
2018-06-10T03:23:22.689Z,94.80
2018-06-10T03:25:50.905Z,95.10
2018-06-10T03:28:19.144Z,95.40
2018-06-10T03:30:47.337Z,96.30
2018-06-10T03:33:15.577Z,95.50
2018-06-10T03:35:43.820Z,95.90
2018-06-10T03:38:12.035Z,95.60
2018-06-10T03:40:40.262Z,96.00
2018-06-10T03:43:08.469Z,95.80
2018-06-10T03:45:36.710Z,95.10
2018-06-10T03:48:04.974Z,95.10
2018-06-10T03:50:33.169Z,95.90
2018-06-10T03:53:01.447Z,95.60
2018-06-10T03:55:29.637Z,95.40
2018-06-10T03:57:57.877Z,95.40
2018-06-10T04:00:26.123Z,95.10
2018-06-10T04:02:54.344Z,95.50
2018-06-10T04:05:22.583Z,95.70
2018-06-10T04:07:50.782Z,95.60
2018-06-10T04:10:19.009Z,95.20
2018-06-10T04:12:47.252Z,95.50
2018-06-10T04:15:15.473Z,95.80
2018-06-10T04:17:43.711Z,95.70
2018-06-10T04:20:11.918Z,95.60
2018-06-10T04:22:40.175Z,96.00
2018-06-10T04:25:08.411Z,96.10
2018-06-10T04:27:36.593Z,96.10
2018-06-10T04:30:04.837Z,96.00
2018-06-10T04:32:33.044Z,95.60
2018-06-10T04:35:01.269Z,95.70
2018-06-10T04:37:29.534Z,96.00
2018-06-10T04:39:57.742Z,96.10
2018-06-10T04:42:25.983Z,96.00
2018-06-10T04:44:54.194Z,96.20
2018-06-10T04:47:22.509Z,95.90
2018-06-10T04:49:50.740Z,95.60
2018-06-10T04:52:18.938Z,95.70
2018-06-10T04:54:47.198Z,96.30
2018-06-10T04:57:15.393Z,96.80
2018-06-10T04:59:43.633Z,96.90
2018-06-10T05:02:11.870Z,96.90
2018-06-10T05:04:40.054Z,96.70
2018-06-10T05:07:08.297Z,96.90
2018-06-10T05:09:36.502Z,96.00
2018-06-10T05:12:04.758Z,95.90
2018-06-10T05:14:33.005Z,95.40
2018-06-10T05:17:01.186Z,95.20
2018-06-10T05:19:29.422Z,95.60
2018-06-10T05:21:57.625Z,95.10
2018-06-10T05:24:25.832Z,95.00
2018-06-10T05:26:54.065Z,94.50
2018-06-10T05:29:22.290Z,94.40
2018-06-10T05:31:50.523Z,94.50
2018-06-10T05:34:18.720Z,93.00
2018-06-10T05:39:14.920Z,92.50
2018-06-10T05:41:43.102Z,91.80
2018-06-10T05:44:11.326Z,90.90
2018-06-10T05:46:39.523Z,90.80
2018-06-10T05:49:07.777Z,90.20
2018-06-10T05:51:36.018Z,89.00
2018-06-10T05:54:04.262Z,88.60
2018-06-10T05:56:32.522Z,88.80
2018-06-10T05:59:00.745Z,88.80
2018-06-10T06:01:29.039Z,88.00
2018-06-10T06:03:57.407Z,88.90
2018-06-10T06:06:25.667Z,88.00
2018-06-10T06:08:53.953Z,88.30
2018-06-10T06:11:22.180Z,87.50
2018-06-10T06:13:50.499Z,87.80
2018-06-10T06:16:18.788Z,87.40
2018-06-10T06:18:47.072Z,86.10
2018-06-10T06:21:15.398Z,85.90
2018-06-10T06:23:43.676Z,85.60
2018-06-10T06:26:11.962Z,84.30
2018-06-10T06:28:40.186Z,83.80
2018-06-10T06:31:08.605Z,82.90
2018-06-10T06:33:36.869Z,81.00
2018-06-10T06:36:05.126Z,83.00
2018-06-10T06:38:33.362Z,81.00
2018-06-10T06:41:01.570Z,80.10
2018-06-10T06:43:29.848Z,81.40
2018-06-10T06:45:58.151Z,78.70
2018-06-10T06:48:26.387Z,78.70
2018-06-10T06:50:54.641Z,80.00
2018-06-10T06:53:22.897Z,80.30
2018-06-10T06:55:51.151Z,79.50
2018-06-10T06:58:19.374Z,77.40
2018-06-10T07:00:47.578Z,78.60
2018-06-10T07:03:15.828Z,77.40
2018-06-10T07:05:44.050Z,79.00
2018-06-10T07:08:12.313Z,79.40
2018-06-10T07:13:08.554Z,79.20
2018-06-10T07:15:36.810Z,77.80
2018-06-10T07:18:05.046Z,77.60
2018-06-10T07:20:33.257Z,78.40
2018-06-10T07:23:01.494Z,78.80
2018-06-10T07:25:29.757Z,76.80
2018-06-10T07:27:58.030Z,77.90
2018-06-10T07:30:26.279Z,77.50
2018-06-10T07:32:54.523Z,77.00
2018-06-10T07:35:22.790Z,75.60
2018-06-10T07:37:50.994Z,76.00
2018-06-10T07:40:19.595Z,76.00
2018-06-10T07:42:47.782Z,76.40
2018-06-10T07:45:16.017Z,77.30
2018-06-10T07:47:44.245Z,77.50
2018-06-10T07:50:12.499Z,76.90
2018-06-10T07:52:40.793Z,77.60
2018-06-10T07:57:37.035Z,77.60
2018-06-10T08:00:05.342Z,78.10
2018-06-10T08:02:33.573Z,74.90
2018-06-10T08:05:02.405Z,75.70
2018-06-10T08:07:31.483Z,76.80
2018-06-10T08:10:02.166Z,76.40
2018-06-10T08:12:30.485Z,77.70
2018-06-10T08:14:58.717Z,74.50
2018-06-10T08:17:26.998Z,76.50
2018-06-10T08:19:55.697Z,76.30
2018-06-10T08:22:24.425Z,75.70
2018-06-10T08:24:53.059Z,76.10
2018-06-10T08:27:21.723Z,75.10
2018-06-10T08:29:50.488Z,74.50
2018-06-10T08:32:19.169Z,74.90
2018-06-10T08:34:47.894Z,74.70
2018-06-10T08:37:16.662Z,75.70
2018-06-10T08:39:45.388Z,74.80
2018-06-10T08:42:14.129Z,74.80
2018-06-10T08:44:42.797Z,74.40
2018-06-10T08:47:11.522Z,76.40
2018-06-10T08:49:40.293Z,75.30
2018-06-10T08:52:08.551Z,76.70
2018-06-10T08:54:36.797Z,75.80
2018-06-10T08:57:05.015Z,75.40
2018-06-10T08:59:33.253Z,73.60
2018-06-10T09:02:01.729Z,73.10
2018-06-10T09:04:29.917Z,74.90
2018-06-10T09:06:58.510Z,74.90
2018-06-10T09:09:26.710Z,75.80
2018-06-10T09:11:54.997Z,74.90
2018-06-10T09:14:23.282Z,75.30
2018-06-10T09:16:51.482Z,75.20
2018-06-10T09:19:19.713Z,72.40
2018-06-10T09:21:47.943Z,72.10
2018-06-10T09:24:16.214Z,73.50
2018-06-10T09:26:44.430Z,72.70
2018-06-10T09:29:12.634Z,72.50
2018-06-10T09:31:40.879Z,70.30
2018-06-10T09:34:09.071Z,70.60
2018-06-10T09:36:37.302Z,70.10
2018-06-10T09:39:07.564Z,72.20
2018-06-10T09:41:35.841Z,71.90
2018-06-10T09:44:04.553Z,71.20
2018-06-10T09:46:32.741Z,74.50
2018-06-10T09:49:00.953Z,75.40
2018-06-10T09:51:29.254Z,73.20
2018-06-10T09:53:57.478Z,73.50
2018-06-10T09:56:25.730Z,72.90
2018-06-10T09:58:53.939Z,74.40
2018-06-10T10:01:22.171Z,74.20
2018-06-10T10:03:50.474Z,74.50
2018-06-10T10:06:18.685Z,74.40
2018-06-10T10:08:46.964Z,75.40
2018-06-10T10:11:15.163Z,75.20
2018-06-10T10:16:11.348Z,73.70
2018-06-10T10:18:39.785Z,73.30
2018-06-10T10:21:08.070Z,70.50
2018-06-10T10:23:36.322Z,73.40
2018-06-10T10:26:04.746Z,72.50
2018-06-10T10:28:33.072Z,73.70
2018-06-10T10:31:01.446Z,74.60
2018-06-10T10:33:29.752Z,72.50
2018-06-10T10:35:57.937Z,72.60
2018-06-10T10:38:28.794Z,69.20
2018-06-10T10:40:57.242Z,71.40
2018-06-10T10:43:25.598Z,71.60
2018-06-10T10:45:53.989Z,72.70
2018-06-10T10:48:22.186Z,71.50
2018-06-10T10:50:50.891Z,73.60
2018-06-10T10:53:19.749Z,72.90
2018-06-10T10:55:48.085Z,70.10
2018-06-10T10:58:16.482Z,69.00
2018-06-10T11:00:44.690Z,68.60
2018-06-10T11:03:12.943Z,72.70
2018-06-10T11:05:41.224Z,72.50
2018-06-10T11:08:09.692Z,72.70
2018-06-10T11:10:37.953Z,72.20
2018-06-10T11:13:05.841Z,73.20
2018-06-10T11:15:34.146Z,72.50
2018-06-10T11:18:02.554Z,69.90
2018-06-10T11:20:31.337Z,69.70
2018-06-10T11:23:00.193Z,69.90
2018-06-10T11:25:28.583Z,69.20
2018-06-10T11:27:56.853Z,67.20
2018-06-10T11:30:25.086Z,67.00
2018-06-10T11:35:21.302Z,64.10
2018-06-10T11:37:49.571Z,66.70
2018-06-10T11:40:17.842Z,67.30
2018-06-10T11:42:46.097Z,68.10
2018-06-10T11:45:14.324Z,67.60
2018-06-10T11:47:42.514Z,68.70
2018-06-10T11:50:10.774Z,64.30
2018-06-10T11:52:39.021Z,66.00
2018-06-10T11:55:07.222Z,65.20
2018-06-10T11:57:35.612Z,67.70
2018-06-10T12:00:04.273Z,66.20
2018-06-10T12:02:32.553Z,67.60
2018-06-10T12:05:00.786Z,67.00
2018-06-10T12:07:29.013Z,68.70
2018-06-10T12:09:57.390Z,64.60
2018-06-10T12:12:25.602Z,65.60
2018-06-10T12:14:53.837Z,68.00
2018-06-10T12:17:22.606Z,66.20
2018-06-10T12:19:50.812Z,64.00
2018-06-10T12:22:19.074Z,63.00
2018-06-10T12:24:47.309Z,64.40
2018-06-10T12:27:15.548Z,63.20
2018-06-10T12:29:43.801Z,65.10
2018-06-10T12:32:12.000Z,66.40
2018-06-10T12:34:40.239Z,66.40
2018-06-10T12:37:08.493Z,64.90
2018-06-10T12:39:36.732Z,63.60
2018-06-10T12:42:05.111Z,61.50
2018-06-10T12:44:33.338Z,61.90
2018-06-10T12:47:01.589Z,61.70
2018-06-10T12:49:29.830Z,63.90
2018-06-10T12:51:58.069Z,64.10
2018-06-10T12:54:26.287Z,66.00
2018-06-10T12:56:54.557Z,66.90
2018-06-10T12:59:22.829Z,66.60
2018-06-10T13:01:51.099Z,68.80
2018-06-10T13:04:19.368Z,69.00
2018-06-10T13:06:47.553Z,69.20
2018-06-10T13:09:15.914Z,69.80
2018-06-10T13:11:44.117Z,72.30
2018-06-10T13:14:12.398Z,74.20
2018-06-10T13:16:40.638Z,75.40
2018-06-10T13:19:09.546Z,75.20
2018-06-10T13:21:37.906Z,76.40
2018-06-10T13:24:06.233Z,77.20
2018-06-10T13:26:34.499Z,77.10
2018-06-10T13:29:02.839Z,75.80
2018-06-10T13:31:31.081Z,76.30
2018-06-10T13:33:59.298Z,75.10
2018-06-10T13:36:27.539Z,75.40
2018-06-10T13:38:55.776Z,76.20
2018-06-10T13:41:24.011Z,75.50
2018-06-10T13:43:52.310Z,75.30
2018-06-10T13:46:20.520Z,75.00
2018-06-10T13:51:16.774Z,74.50
2018-06-10T13:53:45.251Z,72.40
2018-06-10T13:56:13.506Z,71.70
2018-06-10T13:58:41.817Z,70.00
2018-06-10T14:01:10.075Z,67.20
2018-06-10T14:03:38.365Z,67.40
2018-06-10T14:06:06.624Z,67.90
2018-06-10T14:08:34.917Z,67.10
2018-06-10T14:11:03.163Z,66.80
2018-06-10T14:13:31.425Z,69.50
2018-06-10T14:15:59.734Z,67.30
2018-06-10T14:18:27.957Z,68.70
2018-06-10T14:20:56.213Z,67.50
2018-06-10T14:23:24.493Z,68.50
2018-06-10T14:25:52.753Z,70.50
2018-06-10T14:28:21.145Z,71.20
2018-06-10T14:30:49.394Z,67.30
2018-06-10T14:33:17.934Z,67.80
2018-06-10T14:35:46.224Z,68.70
2018-06-10T14:38:14.511Z,67.10
2018-06-10T14:40:42.815Z,65.00
2018-06-10T14:43:11.116Z,65.30
2018-06-10T14:45:39.461Z,65.40
2018-06-10T14:48:07.802Z,64.50
2018-06-10T14:50:36.070Z,67.70
2018-06-10T14:53:04.475Z,66.10
2018-06-10T14:55:32.751Z,62.70
2018-06-10T14:58:02.672Z,65.30
2018-06-10T15:00:31.069Z,66.70
2018-06-10T15:02:59.398Z,66.80
2018-06-10T15:05:27.621Z,67.10
2018-06-10T15:07:55.865Z,66.20
2018-06-10T15:10:24.085Z,65.00
2018-06-10T15:12:52.317Z,63.20
2018-06-10T15:15:20.517Z,63.70
2018-06-10T15:17:48.874Z,62.90
2018-06-10T15:20:17.129Z,63.50
2018-06-10T15:22:45.408Z,64.60
2018-06-10T15:27:41.702Z,65.80
2018-06-10T15:30:09.958Z,65.70
2018-06-10T15:32:38.204Z,66.30
2018-06-10T15:35:06.449Z,67.30
2018-06-10T15:37:34.690Z,69.10
2018-06-10T15:40:02.997Z,68.90
2018-06-10T15:42:31.353Z,68.40
2018-06-10T15:44:59.645Z,69.70
2018-06-10T15:47:27.846Z,67.70
2018-06-10T15:49:56.100Z,69.50
2018-06-10T15:52:24.309Z,69.00
2018-06-10T15:54:52.563Z,69.60
2018-06-10T15:57:20.807Z,67.90
2018-06-10T15:59:49.004Z,66.80
2018-06-10T16:02:17.410Z,68.50
2018-06-10T16:04:45.769Z,67.70
2018-06-10T16:07:14.087Z,69.80
2018-06-10T16:09:42.397Z,70.00
2018-06-10T16:12:10.637Z,69.20
2018-06-10T16:14:38.898Z,69.30
2018-06-10T16:17:07.151Z,70.10
2018-06-10T16:19:35.409Z,70.50
2018-06-10T16:22:03.716Z,69.70
2018-06-10T16:24:31.982Z,68.80
2018-06-10T16:27:00.242Z,71.00
2018-06-10T16:29:28.442Z,69.60
2018-06-10T16:31:56.698Z,71.30
2018-06-10T16:34:24.969Z,72.00
2018-06-10T16:36:53.222Z,71.80
2018-06-10T16:39:21.482Z,70.60
2018-06-10T16:41:49.783Z,70.20
2018-06-10T16:44:18.065Z,70.30
2018-06-10T16:46:46.473Z,70.10
2018-06-10T16:49:14.729Z,70.70
2018-06-10T16:51:42.960Z,70.30
2018-06-10T16:54:11.193Z,69.40
2018-06-10T16:56:39.481Z,69.70
2018-06-10T16:59:07.731Z,70.90
2018-06-10T17:01:35.977Z,69.50
2018-06-10T17:04:04.272Z,70.20
2018-06-10T17:06:32.510Z,70.30
2018-06-10T17:09:00.854Z,70.50
2018-06-10T17:11:29.189Z,70.70
2018-06-10T17:13:57.459Z,69.60
2018-06-10T17:16:25.770Z,70.60
2018-06-10T17:18:54.058Z,69.80
2018-06-10T17:21:22.453Z,70.80
2018-06-10T17:23:50.778Z,69.90
2018-06-10T17:26:19.130Z,70.40
2018-06-10T17:28:47.445Z,70.90
2018-06-10T17:31:15.658Z,71.80
2018-06-10T17:33:43.929Z,72.60
2018-06-10T17:36:12.224Z,71.10
2018-06-10T17:38:40.462Z,72.40
2018-06-10T17:41:08.864Z,72.60
2018-06-10T17:43:37.093Z,73.10
2018-06-10T17:46:05.498Z,73.60
2018-06-10T17:48:33.797Z,74.60
2018-06-10T17:51:02.068Z,74.70
2018-06-10T17:53:30.491Z,75.30
2018-06-10T17:55:58.948Z,75.70
2018-06-10T17:58:27.314Z,76.30
2018-06-10T18:00:55.644Z,76.70
2018-06-10T18:03:23.960Z,76.20
2018-06-10T18:05:52.206Z,76.50
2018-06-10T18:08:20.460Z,76.60
2018-06-10T18:10:48.817Z,76.50
2018-06-10T18:13:17.147Z,76.10
2018-06-10T18:15:45.449Z,76.00
2018-06-10T18:18:13.757Z,76.10
2018-06-10T18:20:41.995Z,75.80
2018-06-10T18:23:10.265Z,75.40
2018-06-10T18:25:38.617Z,75.40
2018-06-10T18:28:07.500Z,75.20
2018-06-10T18:30:35.861Z,75.60
2018-06-10T18:33:04.481Z,75.20
2018-06-10T18:35:32.751Z,75.30
2018-06-10T18:38:01.155Z,74.50
2018-06-10T18:40:29.414Z,74.50
2018-06-10T18:42:57.673Z,74.40
2018-06-10T18:45:26.007Z,74.90
2018-06-10T18:47:54.297Z,74.60
2018-06-10T18:50:22.606Z,75.20
2018-06-10T18:52:50.866Z,76.20
2018-06-10T18:55:19.115Z,76.90
2018-06-10T18:57:47.371Z,77.00
2018-06-10T19:00:15.797Z,77.50
2018-06-10T19:02:44.070Z,77.80
2018-06-10T19:05:12.400Z,78.20
2018-06-10T19:07:40.653Z,78.60
2018-06-10T19:10:08.883Z,78.60
2018-06-10T19:12:37.129Z,79.40
2018-06-10T19:15:05.462Z,79.40
2018-06-10T19:17:33.657Z,79.80
2018-06-10T19:20:01.890Z,79.50
2018-06-10T19:22:30.112Z,79.90
2018-06-10T19:24:58.710Z,80.30
2018-06-10T19:27:27.388Z,80.20
2018-06-10T19:29:56.180Z,80.40
2018-06-10T19:32:24.487Z,81.10
2018-06-10T19:34:53.574Z,81.30
2018-06-10T19:37:21.909Z,80.90
2018-06-10T19:39:50.151Z,81.20
2018-06-10T19:42:18.486Z,81.60
2018-06-10T19:44:46.783Z,82.20
2018-06-10T19:47:15.027Z,82.40
2018-06-10T19:49:43.266Z,82.60
2018-06-10T19:52:11.506Z,82.50
2018-06-10T19:54:39.794Z,82.40
2018-06-10T19:57:08.006Z,82.40
2018-06-10T19:59:36.250Z,82.70
2018-06-10T20:02:04.535Z,82.90
2018-06-10T20:04:36.202Z,82.60
2018-06-10T20:07:04.501Z,82.70
2018-06-10T20:09:32.815Z,83.10
2018-06-10T20:12:01.134Z,83.30
2018-06-10T20:14:29.421Z,83.90
2018-06-10T20:16:57.734Z,84.30
2018-06-10T20:19:26.003Z,84.80
2018-06-10T20:21:54.228Z,85.40
2018-06-10T20:24:22.495Z,85.60
2018-06-10T20:26:50.750Z,85.30
2018-06-10T20:29:18.998Z,85.10
2018-06-10T20:31:47.293Z,84.90
2018-06-10T20:34:15.590Z,85.30
2018-06-10T20:36:43.873Z,85.20
2018-06-10T20:39:12.113Z,85.20
2018-06-10T20:41:40.397Z,85.20
2018-06-10T20:44:08.796Z,85.50
2018-06-10T20:46:37.157Z,85.30
2018-06-10T20:49:05.411Z,84.90
2018-06-10T20:51:33.650Z,85.00
2018-06-10T20:54:01.935Z,84.90
2018-06-10T20:56:30.195Z,85.10
2018-06-10T20:58:58.421Z,85.30
2018-06-10T21:01:26.679Z,85.50
2018-06-10T21:03:56.338Z,85.50
2018-06-10T21:06:25.168Z,85.90
2018-06-10T21:08:53.443Z,86.10
2018-06-10T21:11:21.686Z,86.40
2018-06-10T21:13:49.925Z,86.80
2018-06-10T21:16:18.164Z,87.00
2018-06-10T21:18:46.435Z,86.70
2018-06-10T21:21:14.669Z,86.90
2018-06-10T21:23:43.016Z,86.70
2018-06-10T21:26:11.291Z,86.70
2018-06-10T21:28:39.781Z,86.90
2018-06-10T21:31:08.497Z,86.90
2018-06-10T21:33:36.918Z,86.90
2018-06-10T21:36:05.494Z,86.70
2018-06-10T21:38:33.735Z,87.20
2018-06-10T21:41:01.954Z,87.20
2018-06-10T21:43:30.215Z,87.20
2018-06-10T21:45:58.465Z,87.30
2018-06-10T21:48:26.683Z,88.40
2018-06-10T21:50:54.930Z,89.10
2018-06-10T21:53:23.129Z,89.10
2018-06-10T21:55:51.425Z,88.60
2018-06-10T21:58:19.682Z,88.30
2018-06-10T22:00:47.985Z,88.10
2018-06-10T22:03:16.229Z,87.70
2018-06-10T22:05:44.429Z,87.60
2018-06-10T22:08:12.660Z,87.40
2018-06-10T22:10:40.857Z,87.10
2018-06-10T22:13:09.112Z,87.30
2018-06-10T22:15:37.410Z,87.30
2018-06-10T22:18:05.637Z,86.90
2018-06-10T22:22:59.274Z,87.00
2018-06-10T22:25:27.524Z,87.00
2018-06-10T22:27:55.746Z,86.70
2018-06-10T22:30:24.005Z,86.90
2018-06-10T22:32:52.235Z,87.10
2018-06-10T22:35:20.441Z,87.40
2018-06-10T22:37:48.662Z,87.40
2018-06-10T22:40:16.875Z,87.10
2018-06-10T22:42:45.127Z,87.10
2018-06-10T22:45:13.378Z,87.50
2018-06-10T22:47:41.607Z,87.40
2018-06-10T22:50:09.884Z,87.40
2018-06-10T22:52:38.076Z,87.10
2018-06-10T22:55:06.331Z,87.10
2018-06-10T22:57:34.545Z,87.40
2018-06-10T23:00:02.795Z,87.30
2018-06-10T23:02:31.045Z,87.30
2018-06-10T23:04:59.267Z,87.40
2018-06-10T23:07:27.513Z,87.50
2018-06-10T23:09:55.722Z,87.30
2018-06-10T23:12:23.957Z,86.60
2018-06-10T23:14:52.227Z,86.80
2018-06-10T23:17:20.437Z,86.60
2018-06-10T23:19:48.698Z,86.60
2018-06-10T23:22:16.906Z,87.00
2018-06-10T23:24:45.145Z,87.30
2018-06-10T23:27:13.457Z,87.30
2018-06-10T23:29:41.661Z,87.50
2018-06-10T23:32:09.909Z,87.10
2018-06-10T23:34:38.112Z,87.80
2018-06-10T23:37:06.358Z,87.70
2018-06-10T23:39:34.605Z,87.90
2018-06-10T23:42:02.799Z,87.80
2018-06-10T23:44:31.036Z,87.80
2018-06-10T23:46:59.216Z,87.80
2018-06-10T23:49:27.467Z,87.50
2018-06-10T23:51:55.726Z,87.80
2018-06-10T23:54:23.930Z,87.70
2018-06-10T23:56:52.186Z,87.80
2018-06-10T23:59:20.375Z,87.90
